createdAt,value
2019-04-25T00:01:08.584Z,59.50
2019-04-25T00:03:38.978Z,59.93
2019-04-25T00:06:08.967Z,60.35
2019-04-25T00:08:39.108Z,61.07
2019-04-25T00:11:11.593Z,60.81
2019-04-25T00:13:42.804Z,60.80
2019-04-25T00:16:14.441Z,61.03
2019-04-25T00:18:44.448Z,61.33
2019-04-25T00:21:27.272Z,61.41
2019-04-25T00:24:02.675Z,61.53
2019-04-25T00:26:37.341Z,61.98
2019-04-25T00:29:07.431Z,61.74
2019-04-25T00:31:37.483Z,61.77
2019-04-25T00:34:08.392Z,62.17
2019-04-25T00:36:39.080Z,62.20
2019-04-25T00:39:09.106Z,62.35
2019-04-25T00:41:39.092Z,61.70
2019-04-25T00:44:09.032Z,61.14
2019-04-25T00:46:38.897Z,61.03
2019-04-25T00:49:08.823Z,61.05
2019-04-25T00:51:38.673Z,61.05
2019-04-25T00:54:08.657Z,61.06
2019-04-25T00:56:38.988Z,60.95
2019-04-25T00:59:14.185Z,61.45
2019-04-25T01:01:54.299Z,61.67
2019-04-25T01:04:24.503Z,61.57
2019-04-25T01:06:54.501Z,61.20
2019-04-25T01:09:25.679Z,61.09
2019-04-25T01:11:55.619Z,60.81
2019-04-25T01:14:25.518Z,60.94
2019-04-25T01:16:55.515Z,61.58
2019-04-25T01:19:25.521Z,62.08
2019-04-25T01:21:56.052Z,62.37
2019-04-25T01:24:26.633Z,62.32
2019-04-25T01:26:56.637Z,62.20
2019-04-25T01:29:26.578Z,62.60
2019-04-25T01:31:56.570Z,62.71
2019-04-25T01:34:36.058Z,63.11
2019-04-25T01:37:16.120Z,63.31
2019-04-25T01:40:10.845Z,63.16
2019-04-25T01:42:58.646Z,63.40
2019-04-25T01:45:31.055Z,63.70
2019-04-25T01:48:01.112Z,63.42
2019-04-25T01:50:31.034Z,63.52
2019-04-25T01:53:00.885Z,63.78
2019-04-25T01:55:30.985Z,63.84
2019-04-25T01:58:00.976Z,63.49
2019-04-25T02:00:34.989Z,63.45
2019-04-25T02:03:05.455Z,63.50
2019-04-25T02:05:35.491Z,63.38
2019-04-25T02:08:06.939Z,63.57
2019-04-25T02:10:37.081Z,63.37
2019-04-25T02:13:09.317Z,63.16
2019-04-25T02:15:39.306Z,63.28
2019-04-25T02:18:09.247Z,63.33
2019-04-25T02:20:39.262Z,63.68
2019-04-25T02:23:09.252Z,63.71
2019-04-25T02:25:39.399Z,64.19
2019-04-25T02:28:09.323Z,64.23
2019-04-25T02:30:39.601Z,64.86
2019-04-25T02:33:09.515Z,64.93
2019-04-25T02:35:42.913Z,64.87
2019-04-25T02:38:11.189Z,65.13
2019-04-25T02:40:41.174Z,64.98
2019-04-25T02:43:11.156Z,64.50
2019-04-25T02:46:09.182Z,63.79
2019-04-25T02:49:07.134Z,64.01
2019-04-25T02:51:41.641Z,64.23
2019-04-25T02:54:13.822Z,64.19
2019-04-25T02:56:46.327Z,64.61
2019-04-25T02:59:15.172Z,64.81
2019-04-25T03:01:45.478Z,64.60
2019-04-25T03:04:15.465Z,64.94
2019-04-25T03:06:45.650Z,64.77
2019-04-25T03:09:15.809Z,65.03
2019-04-25T03:11:47.656Z,65.63
2019-04-25T03:14:17.482Z,65.28
2019-04-25T03:16:47.514Z,64.86
2019-04-25T03:19:36.469Z,64.70
2019-04-25T03:22:11.576Z,64.52
2019-04-25T03:24:40.026Z,64.51
2019-04-25T03:27:10.051Z,64.68
2019-04-25T03:29:39.957Z,64.78
2019-04-25T03:32:15.554Z,64.95
2019-04-25T03:34:43.380Z,64.84
2019-04-25T03:37:13.738Z,64.72
2019-04-25T03:39:43.761Z,64.85
2019-04-25T03:42:14.100Z,65.06
2019-04-25T03:44:44.131Z,64.93
2019-04-25T03:47:14.114Z,64.89
2019-04-25T03:49:44.078Z,64.77
2019-04-25T03:52:14.343Z,64.53
2019-04-25T03:54:44.261Z,64.56
2019-04-25T03:57:14.624Z,64.33
2019-04-25T03:59:45.688Z,64.32
2019-04-25T04:02:15.657Z,64.30
2019-04-25T04:04:45.616Z,64.47
2019-04-25T04:07:15.967Z,64.78
2019-04-25T04:09:45.861Z,65.10
2019-04-25T04:12:15.802Z,65.21
2019-04-25T04:14:46.756Z,65.15
2019-04-25T04:17:26.149Z,65.22
2019-04-25T04:20:15.133Z,64.87
2019-04-25T04:22:58.072Z,64.77
2019-04-25T04:25:27.995Z,65.00
2019-04-25T04:27:57.845Z,65.08
2019-04-25T04:30:27.763Z,64.98
2019-04-25T04:32:57.675Z,64.79
2019-04-25T04:35:28.568Z,64.81
2019-04-25T04:37:58.402Z,64.65
2019-04-25T04:40:28.321Z,64.42
2019-04-25T04:42:58.215Z,64.64
2019-04-25T04:45:28.280Z,62.44
2019-04-25T04:47:58.122Z,60.67
2019-04-25T04:50:28.039Z,59.57
2019-04-25T04:52:58.963Z,58.41
2019-04-25T04:55:28.828Z,57.78
2019-04-25T04:58:01.305Z,58.06
2019-04-25T05:00:30.278Z,58.67
2019-04-25T05:03:15.810Z,58.81
2019-04-25T05:06:00.513Z,58.55
2019-04-25T05:08:36.131Z,58.47
2019-04-25T05:11:05.951Z,59.01
2019-04-25T05:13:35.871Z,59.90
2019-04-25T05:16:06.860Z,59.99
2019-04-25T05:18:39.941Z,59.01
2019-04-25T05:21:08.474Z,59.01
2019-04-25T05:23:38.377Z,59.34
2019-04-25T05:26:08.363Z,59.09
2019-04-25T05:28:38.334Z,58.50
2019-04-25T05:31:18.045Z,57.81
2019-04-25T05:33:49.192Z,57.46
2019-04-25T05:36:19.640Z,56.84
2019-04-25T05:38:49.718Z,56.95
2019-04-25T05:41:33.747Z,57.59
2019-04-25T05:44:04.528Z,57.63
2019-04-25T05:46:34.653Z,57.80
2019-04-25T05:49:05.205Z,56.87
2019-04-25T05:51:36.278Z,56.85
2019-04-25T05:54:06.402Z,56.89
2019-04-25T05:56:36.231Z,56.27
2019-04-25T05:59:06.211Z,55.63
2019-04-25T06:01:36.128Z,55.16
2019-04-25T06:04:06.120Z,54.70
2019-04-25T06:06:36.837Z,55.52
2019-04-25T06:09:26.378Z,54.54
2019-04-25T06:12:21.710Z,54.05
2019-04-25T06:14:52.914Z,54.27
2019-04-25T06:17:32.188Z,53.88
2019-04-25T06:20:06.249Z,53.23
2019-04-25T06:23:04.344Z,51.80
2019-04-25T06:25:39.455Z,51.23
2019-04-25T06:28:08.395Z,51.44
2019-04-25T06:30:38.465Z,50.02
2019-04-25T06:33:08.290Z,50.14
2019-04-25T06:35:38.273Z,49.54
2019-04-25T06:38:08.185Z,48.98
2019-04-25T06:40:38.349Z,48.87
2019-04-25T06:43:08.352Z,48.21
2019-04-25T06:46:06.624Z,47.38
2019-04-25T06:48:43.377Z,47.74
2019-04-25T06:51:14.629Z,46.84
2019-04-25T06:53:44.629Z,46.97
2019-04-25T06:56:14.659Z,47.04
2019-04-25T06:58:44.658Z,46.68
2019-04-25T07:01:14.567Z,46.88
2019-04-25T07:03:45.661Z,46.39
2019-04-25T07:06:15.525Z,45.80
2019-04-25T07:08:45.455Z,45.40
2019-04-25T07:11:15.439Z,45.27
2019-04-25T07:13:46.440Z,45.11
2019-04-25T07:16:16.350Z,44.25
2019-04-25T07:18:46.339Z,43.99
2019-04-25T07:21:16.191Z,42.97
2019-04-25T07:23:46.448Z,42.27
2019-04-25T07:26:26.881Z,42.83
2019-04-25T07:29:05.376Z,42.75
2019-04-25T07:31:44.275Z,42.17
2019-04-25T07:34:17.820Z,41.78
2019-04-25T07:36:47.806Z,41.65
2019-04-25T07:39:18.012Z,41.09
2019-04-25T07:41:48.089Z,40.96
2019-04-25T07:44:20.838Z,40.51
2019-04-25T07:46:49.861Z,40.12
2019-04-25T07:49:19.892Z,40.45
2019-04-25T07:51:49.747Z,39.86
2019-04-25T07:54:19.748Z,39.58
2019-04-25T07:56:49.728Z,39.53
2019-04-25T07:59:19.707Z,39.20
2019-04-25T08:01:49.617Z,38.12
2019-04-25T08:04:19.530Z,37.63
2019-04-25T08:06:49.455Z,38.13
2019-04-25T08:09:19.628Z,37.56
2019-04-25T08:11:49.590Z,37.25
2019-04-25T08:14:28.546Z,37.43
2019-04-25T08:17:00.973Z,37.45
2019-04-25T08:19:31.109Z,36.31
2019-04-25T08:22:03.552Z,36.19
2019-04-25T08:24:35.915Z,36.68
2019-04-25T08:27:06.124Z,36.70
2019-04-25T08:29:39.104Z,34.36
2019-04-25T08:32:07.925Z,34.68
2019-04-25T08:34:38.606Z,33.77
2019-04-25T08:37:17.929Z,33.38
2019-04-25T08:39:40.389Z,33.12
2019-04-25T08:42:10.297Z,33.68
2019-04-25T08:44:40.227Z,33.51
2019-04-25T08:47:11.052Z,32.51
2019-04-25T08:49:51.556Z,33.18
2019-04-25T08:52:21.435Z,32.41
2019-04-25T08:55:08.477Z,32.38
2019-04-25T08:58:05.359Z,31.18
2019-04-25T09:01:00.903Z,30.46
2019-04-25T09:03:29.311Z,29.80
2019-04-25T09:05:59.406Z,30.83
2019-04-25T09:08:29.405Z,30.66
2019-04-25T09:10:59.444Z,29.23
2019-04-25T09:13:29.355Z,28.30
2019-04-25T09:16:00.413Z,28.15
2019-04-25T09:18:30.338Z,28.12
2019-04-25T09:21:00.321Z,28.38
2019-04-25T09:23:30.268Z,26.88
2019-04-25T09:26:00.272Z,27.25
2019-04-25T09:28:30.104Z,26.80
2019-04-25T09:31:00.033Z,26.72
2019-04-25T09:33:30.074Z,25.90
2019-04-25T09:36:00.063Z,25.25
2019-04-25T09:38:30.045Z,25.24
2019-04-25T09:40:59.914Z,25.76
2019-04-25T09:43:29.921Z,25.43
2019-04-25T09:46:10.371Z,25.51
2019-04-25T09:48:50.096Z,24.74
2019-04-25T09:51:33.599Z,25.81
2019-04-25T09:54:23.765Z,25.66
2019-04-25T09:56:57.319Z,24.32
2019-04-25T09:59:30.009Z,24.97
2019-04-25T10:01:58.977Z,24.54
2019-04-25T10:04:28.823Z,24.73
2019-04-25T10:06:58.826Z,24.41
2019-04-25T10:09:29.121Z,25.24
2019-04-25T10:11:59.186Z,24.03
2019-04-25T10:14:54.577Z,24.53
2019-04-25T10:17:25.495Z,25.04
2019-04-25T10:19:55.462Z,24.60
2019-04-25T10:22:25.367Z,20.24
2019-04-25T10:25:00.347Z,20.39
2019-04-25T10:27:27.041Z,20.72
2019-04-25T10:29:57.877Z,22.58
2019-04-25T10:32:27.858Z,22.61
2019-04-25T10:34:57.871Z,21.41
2019-04-25T10:37:27.881Z,21.67
2019-04-25T10:39:57.875Z,20.24
2019-04-25T10:42:28.068Z,20.98
2019-04-25T10:44:57.981Z,20.58
2019-04-25T10:47:28.691Z,19.94
2019-04-25T10:49:59.231Z,20.53
2019-04-25T10:52:29.391Z,20.48
2019-04-25T10:54:59.376Z,19.48
2019-04-25T10:57:29.571Z,19.68
2019-04-25T11:00:06.146Z,19.02
2019-04-25T11:02:33.920Z,18.56
2019-04-25T11:05:10.030Z,18.59
2019-04-25T11:07:40.659Z,18.48
2019-04-25T11:10:11.168Z,19.32
2019-04-25T11:12:42.297Z,18.86
2019-04-25T11:15:14.307Z,19.09
2019-04-25T11:17:45.762Z,19.22
2019-04-25T11:20:27.023Z,18.65
2019-04-25T11:22:57.115Z,18.58
2019-04-25T11:25:27.107Z,19.24
2019-04-25T11:27:57.152Z,18.15
2019-04-25T11:30:29.279Z,18.69
2019-04-25T11:33:00.053Z,19.49
2019-04-25T11:35:30.051Z,19.05
2019-04-25T11:38:03.524Z,20.41
2019-04-25T11:40:39.017Z,18.61
2019-04-25T11:43:09.110Z,17.64
2019-04-25T11:45:39.723Z,17.37
2019-04-25T11:48:09.620Z,17.95
2019-04-25T11:50:39.623Z,18.54
2019-04-25T11:53:09.744Z,17.87
2019-04-25T11:55:39.776Z,18.13
2019-04-25T11:58:09.775Z,18.29
2019-04-25T12:00:39.832Z,17.51
2019-04-25T12:03:09.777Z,17.08
2019-04-25T12:05:39.754Z,17.56
2019-04-25T12:08:09.952Z,16.62
2019-04-25T12:10:40.222Z,17.04
2019-04-25T12:13:10.067Z,16.98
2019-04-25T12:15:40.049Z,17.30
2019-04-25T12:18:09.965Z,17.39
2019-04-25T12:20:40.336Z,17.34
2019-04-25T12:23:10.695Z,17.29
2019-04-25T12:25:40.593Z,17.94
2019-04-25T12:28:10.543Z,17.30
2019-04-25T12:30:40.627Z,17.72
2019-04-25T12:33:19.168Z,17.51
2019-04-25T12:35:43.661Z,18.24
2019-04-25T12:38:14.177Z,18.14
2019-04-25T12:40:44.256Z,18.28
2019-04-25T12:43:14.320Z,17.94
2019-04-25T12:46:08.639Z,18.90
2019-04-25T12:48:38.584Z,18.71
2019-04-25T12:51:08.579Z,18.80
2019-04-25T12:53:38.628Z,18.51
2019-04-25T12:56:08.520Z,18.56
2019-04-25T12:58:38.648Z,17.79
2019-04-25T13:01:09.249Z,17.62
2019-04-25T13:03:39.251Z,17.39
2019-04-25T13:06:09.243Z,17.43
2019-04-25T13:08:39.438Z,17.61
2019-04-25T13:11:10.526Z,17.22
2019-04-25T13:13:40.488Z,17.24
2019-04-25T13:16:10.662Z,17.75
2019-04-25T13:18:40.580Z,17.46
2019-04-25T13:21:10.486Z,17.89
2019-04-25T13:23:40.571Z,18.10
2019-04-25T13:26:10.929Z,18.35
2019-04-25T13:29:07.603Z,18.48
2019-04-25T13:31:53.221Z,18.84
2019-04-25T13:34:36.042Z,18.11
2019-04-25T13:36:58.774Z,18.00
2019-04-25T13:39:28.878Z,17.94
2019-04-25T13:42:00.968Z,18.63
2019-04-25T13:44:30.485Z,18.15
2019-04-25T13:47:01.376Z,17.89
2019-04-25T13:49:31.631Z,18.38
2019-04-25T13:52:01.632Z,18.54
2019-04-25T13:54:33.418Z,18.48
2019-04-25T13:57:03.401Z,18.22
2019-04-25T13:59:33.333Z,18.58
2019-04-25T14:02:05.552Z,18.45
2019-04-25T14:04:35.784Z,18.67
2019-04-25T14:07:06.649Z,18.60
2019-04-25T14:09:36.602Z,19.48
2019-04-25T14:12:06.591Z,19.21
2019-04-25T14:14:36.592Z,19.38
2019-04-25T14:17:25.710Z,19.23
2019-04-25T14:20:20.842Z,19.77
2019-04-25T14:22:53.653Z,19.37
2019-04-25T14:25:26.899Z,18.90
2019-04-25T14:27:55.292Z,19.23
2019-04-25T14:30:28.393Z,19.49
2019-04-25T14:32:58.231Z,19.35
2019-04-25T14:35:29.058Z,19.35
2019-04-25T14:37:58.996Z,18.54
2019-04-25T14:40:28.933Z,18.27
2019-04-25T14:42:58.781Z,19.05
2019-04-25T14:45:42.424Z,19.31
2019-04-25T14:48:00.416Z,19.66
2019-04-25T14:50:30.409Z,19.54
2019-04-25T14:53:00.245Z,19.72
2019-04-25T14:56:07.507Z,19.73
2019-04-25T14:58:38.447Z,19.94
2019-04-25T15:01:08.626Z,19.93
2019-04-25T15:03:38.554Z,19.62
2019-04-25T15:06:08.494Z,20.06
2019-04-25T15:08:38.423Z,19.38
2019-04-25T15:11:08.418Z,18.91
2019-04-25T15:13:38.468Z,18.14
2019-04-25T15:16:08.614Z,18.09
2019-04-25T15:18:46.501Z,17.48
2019-04-25T15:21:11.347Z,18.30
2019-04-25T15:23:41.336Z,18.22
2019-04-25T15:26:11.383Z,18.25
2019-04-25T15:28:41.379Z,17.92
2019-04-25T15:31:11.471Z,17.64
2019-04-25T15:33:41.571Z,17.58
2019-04-25T15:36:17.531Z,18.09
2019-04-25T15:38:55.160Z,18.05
2019-04-25T15:41:40.049Z,18.86
2019-04-25T15:44:36.941Z,19.53
2019-04-25T15:47:08.979Z,18.19
2019-04-25T15:49:38.953Z,18.58
2019-04-25T15:52:09.619Z,18.25
2019-04-25T15:54:39.545Z,18.24
2019-04-25T15:57:09.657Z,18.40
2019-04-25T15:59:39.661Z,18.64
2019-04-25T16:02:11.663Z,18.81
2019-04-25T16:04:41.573Z,18.44
2019-04-25T16:07:12.644Z,18.81
2019-04-25T16:09:42.652Z,18.78
2019-04-25T16:12:13.449Z,18.68
2019-04-25T16:14:44.261Z,18.71
2019-04-25T16:17:16.401Z,18.90
2019-04-25T16:19:45.948Z,18.72
2019-04-25T16:22:15.841Z,18.83
2019-04-25T16:24:45.771Z,18.93
2019-04-25T16:27:16.636Z,18.67
2019-04-25T16:29:46.670Z,19.11
2019-04-25T16:32:21.168Z,19.85
2019-04-25T16:34:51.250Z,19.70
2019-04-25T16:37:21.358Z,20.40
2019-04-25T16:39:51.284Z,20.36
2019-04-25T16:42:21.222Z,20.33
2019-04-25T16:44:51.203Z,20.27
2019-04-25T16:47:23.222Z,20.64
2019-04-25T16:49:53.214Z,21.47
2019-04-25T16:52:23.698Z,21.22
2019-04-25T16:54:53.688Z,21.36
2019-04-25T16:57:23.715Z,21.50
2019-04-25T16:59:53.622Z,21.99
2019-04-25T17:02:33.035Z,22.25
2019-04-25T17:04:57.497Z,22.50
2019-04-25T17:07:27.733Z,23.18
2019-04-25T17:09:57.678Z,23.01
2019-04-25T17:12:27.705Z,23.14
2019-04-25T17:15:15.612Z,23.34
2019-04-25T17:18:03.488Z,23.53
2019-04-25T17:20:36.855Z,23.76
2019-04-25T17:23:07.154Z,24.04
2019-04-25T17:25:37.316Z,24.68
2019-04-25T17:28:07.629Z,24.46
2019-04-25T17:30:39.277Z,24.72
2019-04-25T17:33:15.360Z,25.17
2019-04-25T17:36:01.295Z,25.25
2019-04-25T17:38:47.221Z,25.54
2019-04-25T17:41:17.260Z,25.89
2019-04-25T17:43:47.251Z,26.22
2019-04-25T17:46:19.021Z,26.25
2019-04-25T17:48:48.940Z,26.50
2019-04-25T17:51:18.862Z,26.64
2019-04-25T17:53:48.695Z,26.75
2019-04-25T17:56:19.842Z,27.30
2019-04-25T17:58:49.841Z,27.35
2019-04-25T18:01:23.646Z,27.52
2019-04-25T18:03:53.755Z,27.73
2019-04-25T18:06:23.749Z,27.71
2019-04-25T18:08:53.602Z,28.09
2019-04-25T18:11:23.437Z,28.27
2019-04-25T18:13:53.448Z,28.29
2019-04-25T18:16:40.232Z,28.55
2019-04-25T18:19:17.699Z,28.71
2019-04-25T18:21:47.661Z,29.03
2019-04-25T18:24:36.605Z,29.14
2019-04-25T18:27:16.139Z,29.29
2019-04-25T18:29:46.336Z,29.16
2019-04-25T18:32:16.354Z,29.43
2019-04-25T18:34:52.777Z,29.53
2019-04-25T18:37:42.742Z,29.57
2019-04-25T18:40:41.765Z,29.62
2019-04-25T18:43:24.699Z,29.70
2019-04-25T18:45:58.866Z,29.85
2019-04-25T18:48:29.697Z,29.99
2019-04-25T18:50:59.675Z,30.25
2019-04-25T18:53:57.341Z,30.40
2019-04-25T18:56:52.060Z,30.21
2019-04-25T18:59:44.127Z,30.43
2019-04-25T19:02:33.918Z,30.55
2019-04-25T19:05:32.063Z,30.55
2019-04-25T19:08:02.199Z,30.87
2019-04-25T19:10:32.114Z,30.86
2019-04-25T19:13:12.427Z,30.73
2019-04-25T19:15:33.744Z,30.81
2019-04-25T19:18:03.750Z,30.95
2019-04-25T19:20:33.687Z,30.96
2019-04-25T19:23:03.698Z,30.90
2019-04-25T19:25:33.669Z,30.99
2019-04-25T19:28:03.654Z,31.00
2019-04-25T19:30:33.601Z,31.13
2019-04-25T19:33:03.576Z,30.99
2019-04-25T19:35:35.345Z,31.14
2019-04-25T19:38:08.518Z,31.32
2019-04-25T19:41:06.732Z,31.15
2019-04-25T19:44:13.874Z,31.39
2019-04-25T19:46:47.078Z,31.38
2019-04-25T19:49:17.072Z,31.65
2019-04-25T19:51:47.276Z,31.59
2019-04-25T19:54:17.312Z,31.64
2019-04-25T19:56:47.456Z,31.67
2019-04-25T19:59:17.532Z,32.02
2019-04-25T20:01:48.317Z,32.05
2019-04-25T20:04:33.888Z,32.16
2019-04-25T20:07:31.867Z,32.16
2019-04-25T20:10:08.222Z,32.25
2019-04-25T20:12:42.904Z,32.31
2019-04-25T20:15:14.381Z,32.29
2019-04-25T20:17:44.854Z,32.72
2019-04-25T20:20:16.565Z,32.53
2019-04-25T20:22:46.463Z,32.81
2019-04-25T20:25:16.571Z,32.97
2019-04-25T20:27:46.745Z,33.15
2019-04-25T20:30:17.056Z,33.05
2019-04-25T20:32:47.365Z,33.02
2019-04-25T20:35:17.333Z,33.20
2019-04-25T20:37:47.508Z,33.52
2019-04-25T20:40:17.577Z,33.67
2019-04-25T20:42:48.049Z,33.67
2019-04-25T20:45:18.931Z,33.75
2019-04-25T20:47:48.803Z,33.92
2019-04-25T20:50:18.700Z,33.94
2019-04-25T20:52:50.587Z,34.00
2019-04-25T20:55:20.883Z,34.29
2019-04-25T20:57:51.242Z,34.09
2019-04-25T21:00:40.092Z,33.99
2019-04-25T21:03:10.668Z,34.28
2019-04-25T21:05:41.068Z,34.35
2019-04-25T21:08:10.977Z,34.31
2019-04-25T21:10:40.910Z,34.31
2019-04-25T21:13:14.639Z,34.29
2019-04-25T21:16:00.032Z,34.34
2019-04-25T21:18:34.635Z,34.70
2019-04-25T21:21:04.623Z,34.95
2019-04-25T21:23:34.561Z,35.09
2019-04-25T21:26:04.562Z,35.15
2019-04-25T21:28:34.624Z,35.16
2019-04-25T21:31:04.748Z,35.05
2019-04-25T21:33:34.751Z,35.08
2019-04-25T21:36:05.195Z,35.38
2019-04-25T21:38:35.404Z,35.06
2019-04-25T21:41:16.678Z,35.33
2019-04-25T21:43:54.191Z,35.11
2019-04-25T21:46:24.375Z,34.83
2019-04-25T21:48:54.777Z,34.81
2019-04-25T21:51:33.940Z,34.74
2019-04-25T21:54:04.234Z,34.86
2019-04-25T21:56:34.417Z,34.71
2019-04-25T21:59:04.576Z,34.69
2019-04-25T22:01:38.315Z,34.54
2019-04-25T22:04:08.404Z,34.68
2019-04-25T22:06:38.733Z,34.64
2019-04-25T22:09:12.652Z,34.58
2019-04-25T22:11:42.659Z,34.71
2019-04-25T22:14:13.031Z,34.93
2019-04-25T22:16:43.423Z,35.12
2019-04-25T22:19:13.631Z,35.20
2019-04-25T22:21:43.894Z,35.19
2019-04-25T22:24:15.990Z,35.23
2019-04-25T22:26:48.047Z,35.30
2019-04-25T22:29:17.985Z,35.57
2019-04-25T22:32:03.831Z,35.72
2019-04-25T22:34:51.643Z,35.74
2019-04-25T22:37:14.562Z,35.69
2019-04-25T22:39:44.754Z,35.49
2019-04-25T22:42:16.411Z,35.98
2019-04-25T22:44:46.319Z,35.73
2019-04-25T22:47:17.714Z,35.75
2019-04-25T22:49:47.724Z,35.69
2019-04-25T22:52:17.903Z,36.27
2019-04-25T22:54:47.834Z,36.00
2019-04-25T22:57:18.483Z,35.46
2019-04-25T22:59:48.713Z,36.15
2019-04-25T23:02:37.004Z,36.14
2019-04-25T23:05:16.357Z,35.50
2019-04-25T23:07:46.190Z,35.49
2019-04-25T23:10:16.663Z,35.62
2019-04-25T23:12:46.623Z,35.96
2019-04-25T23:15:16.857Z,35.57
2019-04-25T23:17:46.683Z,35.68
2019-04-25T23:20:17.019Z,35.55
2019-04-25T23:22:47.002Z,35.46
2019-04-25T23:25:19.818Z,35.48
2019-04-25T23:28:14.001Z,35.50
2019-04-25T23:31:01.082Z,35.64
2019-04-25T23:33:31.112Z,35.50
2019-04-25T23:36:01.480Z,35.41
2019-04-25T23:38:31.452Z,35.67
2019-04-25T23:41:03.306Z,35.44
2019-04-25T23:43:33.215Z,35.21
2019-04-25T23:46:03.222Z,35.16
2019-04-25T23:48:33.764Z,35.56
2019-04-25T23:51:03.694Z,35.82
2019-04-25T23:53:33.675Z,35.97
2019-04-25T23:56:03.693Z,35.73
2019-04-25T23:58:33.545Z,35.94
